Das ist die Wetter- und Hausseite der Bittkau's aus Magdeburg Ottersleben


Hier werden aktuelle Daten aus der privaten Wetterstation und

andere lokale Wettervorhersagen bereitgestellt




Thunder radar more information blitzortung!


Rain radar more information rain snow radar



Es ist keine erhöhte Aufmerksamkeit aufgrund des Wetters notwendig.    Es gibt keine Warnungen.

METAR-Meldungen aus der Umgebung

   
EBBC - Cochstedt
Aktualisierung: 01.01.1970 1:00
Nicht aktuell
  
  
   Wind: Windstille
Wind: Windstille
EDDP - Leipzig
Aktualisierung: 17.12.2018 4:20
leicht bewölkt  
leicht bewölkt  
   Wind: SSW 11.1 km/h
Wind: SSW 11.1 km/h
Temperatur: 4°C
Gefühlt: 1°C
Taupunkt: 1°C
Luftfeuchte: 81%
Luftdruck: 1021 hPa
Bewölkt: leicht bewölkt
Sichtbarkeit: More than 10 km
Bewölkung: leicht bewölkt 1371.6 m
EDDP 171520Z 20006KT 9999 FEW045 04/01 Q1021 NOSIG
EDDC - Dresden
Aktualisierung: 17.12.2018 4:20
leicht bewölkt  
leicht bewölkt  
   Wind: Süden 5.6 km/h
Wind: Süden 5.6 km/h
Temperatur: 1°C
Gefühlt: -1°C
Taupunkt: -1°C
Luftfeuchte: 87%
Luftdruck: 1022 hPa
Bewölkt: leicht bewölkt
Sichtbarkeit: More than 10 km
Bewölkung: leicht bewölkt 1219.2 m
EDDC 171520Z 19003KT 9999 FEW040 01/M01 Q1022 NOSIG
EDDE - Erfurt
Aktualisierung: 17.12.2018 4:20
Stark bewölkt  
Stark bewölkt  
   Wind: SW 18.5 km/h
Wind: SW 18.5 km/h
Temperatur: 4°C
Gefühlt: 0°C
Taupunkt: 1°C
Luftfeuchte: 81%
Luftdruck: 1020 hPa
Bewölkt: Stark bewölkt
Sichtbarkeit: More than 10 km
Bewölkung: Stark bewölkt 548.6 m
EDDE 171520Z 22010KT 9999 BKN018 04/01 Q1020 NOSIG
EDVE - Braunschweig
Aktualisierung: 17.12.2018 4:20
Bewölkt  
Bewölkt  
   Wind: variiert 5.6 km/h
Wind: variiert 5.6 km/h
Temperatur: 4°C
Gefühlt: 3°C
Taupunkt: 1°C
Luftfeuchte: 81%
Luftdruck: 1020 hPa
Bewölkt: Bewölkt
Sichtbarkeit: More than 10 km
Bewölkung: Teilweise bewölkt 670.6 m,
Stark bewölkt 853.4 m,
Bewölkt 1188.7 m
EDVE 171520Z VRB03KT 9999 SCT022 BKN028 OVC039 04/01 Q1020
EDDV - Hannover
Aktualisierung: 17.12.2018 4:20
Stark bewölkt  
Stark bewölkt  
   Wind: SSO 7.4 km/h
Wind: SSO 7.4 km/h
Temperatur: 5°C
Gefühlt: 3°C
Taupunkt: 3°C
Luftfeuchte: 87%
Luftdruck: 1019 hPa
Bewölkt: Stark bewölkt
Sichtbarkeit: More than 10 km
Bewölkung: Stark bewölkt 457.2 m
EDDV 171520Z 16004KT 120V200 9999 BKN015 05/03 Q1019 TEMPO BKN012
EDDT - Berlin
Aktualisierung: 17.12.2018 4:20
Stark bewölkt  
Stark bewölkt  
   Wind: Süden 5.6 km/h
Wind: Süden 5.6 km/h
Temperatur: 2°C
Gefühlt: 1°C
Taupunkt: 0°C
Luftfeuchte: 87%
Luftdruck: 1021 hPa
Bewölkt: Stark bewölkt
Sichtbarkeit: 9 km
Bewölkung: Stark bewölkt 335.3 m
EDDT 171520Z 19003KT 9000 BKN011 02/00 Q1021 BECMG BKN009
EDDE - Schwerin
Aktualisierung: 17.12.2018 4:20
Stark bewölkt  
Stark bewölkt  
   Wind: SW 18.5 km/h
Wind: SW 18.5 km/h
Temperatur: 4°C
Gefühlt: 0°C
Taupunkt: 1°C
Luftfeuchte: 81%
Luftdruck: 1020 hPa
Bewölkt: Stark bewölkt
Sichtbarkeit: More than 10 km
Bewölkung: Stark bewölkt 548.6 m
EDDE 171520Z 22010KT 9999 BKN018 04/01 Q1020 NOSIG
EDHI - Hamburg
Aktualisierung: 17.12.2018 4:20
Bewölkt  
Bewölkt  
   Wind: SO 7.4 km/h
Wind: SO 7.4 km/h
Temperatur: 3°C
Gefühlt: 1°C
Taupunkt: 2°C
Luftfeuchte: 93%
Luftdruck: 1019 hPa
Bewölkt: Bewölkt
Sichtbarkeit: 5 km
Bewölkung: Bewölkt 487.7 m
EDHI 171520Z 13004KT 070V180 5000 OVC016 03/02 Q1019
EDDK - Köln/Bonn
Aktualisierung: 17.12.2018 4:20
Stark bewölkt  
Stark bewölkt  
   Wind: SW 16.7 km/h
Wind: SW 16.7 km/h
Temperatur: 8°C
Gefühlt: 5°C
Taupunkt: 3°C
Luftfeuchte: 71%
Luftdruck: 1021 hPa
Bewölkt: Stark bewölkt
Sichtbarkeit: More than 10 km
Bewölkung: leicht bewölkt 914.4 m,
Stark bewölkt 1463 m
EDDK 171520Z 23009KT 9999 FEW030 BKN048 08/03 Q1021 R14L/CLRD// R14R/CLRD// R06/CLRD// NOSIG
EDHL - Luebeck
Aktualisierung: 17.12.2018 4:20
Nebel, Bewölkt  
Nebel, Bewölkt  
   Wind: OSO 7.4 km/h
Wind: OSO 7.4 km/h
Temperatur: 1°C
Gefühlt: -1°C
Taupunkt: 1°C
Luftfeuchte: 100%
Luftdruck: 1020 hPa
Bewölkt: Bewölkt
Sichtbarkeit: 2 km
Bewölkung: Bewölkt 121.9 m
EDHL 171520Z 11004KT 2300 BR OVC004 01/01 Q1020
 

Script entwickelt von  Saratoga-weather.org Angepasst für das Template von  Weerstation Leuven

Sie finden die Wetterinfo auch auf:

Wetternetzwerk Deutschland

European Weather Network

Weather Underground

Regionalwetter-SA

wetter.com

wxforum.de

Genutzte Hardware, Software und WEB Anbieter:

Wetterstation
Ventus W928-Ultimate

Wetterprogramm
Meteohub

WetterComputer
RaspberryPI

Anbieter
WEB Provider One.com

Ventus W928-Ultimate

Meteohub

RaspberryPI

WEB Provider One.com